Time;durP1;ratioP1;P1;durP2;ratioP2;P2;SDS_P1;SDS_P2;PMS_P1;PMS_P2;Temp;Humidity;BMP_temperature;BMP_pressure;BME280_temperature;BME280_humidity;BME280_pressure;Samples;Min_cycle;Max_cycle;Signal;HPM_P1;HPM_P2
2022/03/27 00:33:33;;;;;;;;;;;;;;;13.66;50.79;99050.03;12788736;22;2213009;-85
2022/03/27 00:38:54;;;;;;;;;;;;;;;13.60;51.26;99044.66;12834896;23;19943;-87
2022/03/27 00:44:15;;;;;;;;;;;;;;;13.52;50.89;99046.16;12833895;23;19904;-85
2022/03/27 00:49:36;;;;;;;;;;;;;;;13.53;50.87;99045.56;12813377;23;19927;-86
2022/03/27 00:54:58;;;;;;;;;;;;;;;13.43;52.10;99048.31;12833084;23;19931;-86
2022/03/27 01:00:36;;;;;;;;;;;;;;;13.45;51.31;99044.94;12813046;23;19969;-85
2022/03/27 01:05:58;;;;;;;;;;;;;;;13.56;51.47;99052.06;12749992;23;19921;-86
2022/03/27 01:11:20;;;;;;;;;;;;;;;13.53;51.92;99056.03;12770431;23;19924;-83
2022/03/27 01:16:44;;;;;;;;;;;;;;;13.42;52.86;99062.94;12770109;23;19911;-82
2022/03/27 01:22:08;;;;;;;;;;;;;;;13.37;52.58;99067.47;12745752;23;19927;-84
2022/03/27 01:27:30;;;;;;;;;;;;;;;13.37;52.22;99064.66;12769692;23;19925;-82
2022/03/27 01:32:52;;;;;;;;;;;;;;;13.28;51.82;99062.56;12760847;23;19936;-84
2022/03/27 01:38:14;;;;;;;;;;;;;;;13.14;52.11;99064.25;12748335;23;19920;-86
2022/03/27 01:43:35;;;;;;;;;;;;;;;13.27;51.68;99055.47;12749296;23;19924;-84
2022/03/27 01:48:56;;;;;;;;;;;;;;;13.23;52.01;99057.97;12789133;23;19924;-86
2022/03/27 01:54:19;;;;;;;;;;;;;;;13.09;51.88;99048.41;12746450;23;19921;-84
2022/03/27 01:59:41;;;;;;;;;;;;;;;13.02;52.21;99049.25;12787177;23;19905;-82
2022/03/27 02:05:02;;;;;;;;;;;;;;;12.92;51.65;99042.84;12748989;23;19920;-84
2022/03/27 02:10:23;;;;;;;;;;;;;;;12.70;51.96;99050.22;12786821;23;20577;-84
2022/03/27 02:15:46;;;;;;;;;;;;;;;12.65;52.38;99051.97;12765058;23;19924;-85
2022/03/27 02:21:07;;;;;;;;;;;;;;;12.56;52.30;99055.44;12744176;23;19921;-85
2022/03/27 02:26:28;;;;;;;;;;;;;;;12.52;52.63;99055.84;12764299;23;19924;-83
2022/03/27 02:31:49;;;;;;;;;;;;;;;12.45;52.61;99062.28;12722493;23;19935;-85
2022/03/27 02:37:12;;;;;;;;;;;;;;;12.27;52.78;99063.59;12763952;23;19920;-84
2022/03/27 02:42:33;;;;;;;;;;;;;;;12.09;52.81;99070.50;12762944;23;19927;-86
2022/03/27 02:47:55;;;;;;;;;;;;;;;11.98;52.86;99071.72;12762455;23;19936;-86
2022/03/27 02:53:16;;;;;;;;;;;;;;;11.82;52.77;99075.97;12783637;23;19928;-85
2022/03/27 02:58:38;;;;;;;;;;;;;;;11.82;52.79;99070.38;12763179;23;19921;-83
2022/03/27 03:03:59;;;;;;;;;;;;;;;11.68;53.19;99067.84;12752161;23;19924;-87
2022/03/27 03:09:20;;;;;;;;;;;;;;;11.49;53.25;99064.06;12792186;23;19904;-84
2022/03/27 03:14:41;;;;;;;;;;;;;;;11.33;53.28;99069.03;12793183;23;19928;-85
2022/03/27 03:20:03;;;;;;;;;;;;;;;11.22;53.32;99067.41;12731113;23;19916;-81
2022/03/27 03:25:25;;;;;;;;;;;;;;;11.06;53.73;99063.94;12749667;23;19924;-82
2022/03/27 03:30:46;;;;;;;;;;;;;;;10.92;53.56;99062.75;12723860;23;19916;-81
2022/03/27 03:36:08;;;;;;;;;;;;;;;10.82;53.80;99065.38;12769329;23;19944;-82
2022/03/27 03:41:29;;;;;;;;;;;;;;;10.72;53.98;99069.34;12791635;23;19912;-87
2022/03/27 03:47:11;;;;;;;;;;;;;;;10.66;53.92;99097.47;12756355;23;19927;-83
2022/03/27 03:52:33;;;;;;;;;;;;;;;10.65;53.80;99084.06;12772635;23;19924;-82
2022/03/27 03:57:57;;;;;;;;;;;;;;;10.59;54.25;99093.38;12792449;23;19920;-84
2022/03/27 04:03:20;;;;;;;;;;;;;;;10.48;54.32;99088.22;12786125;23;19921;-83
2022/03/27 04:08:42;;;;;;;;;;;;;;;10.36;54.20;99089.19;12776071;23;19988;-82
2022/03/27 04:14:03;;;;;;;;;;;;;;;10.24;54.25;99091.63;12775593;23;19935;-82
2022/03/27 04:19:24;;;;;;;;;;;;;;;10.18;54.33;99094.56;12775661;23;19928;-80
2022/03/27 04:24:45;;;;;;;;;;;;;;;10.12;54.64;99101.66;12817926;23;19921;-83
2022/03/27 04:30:09;;;;;;;;;;;;;;;10.00;54.67;99110.41;12797833;23;19925;-83
2022/03/27 04:35:30;;;;;;;;;;;;;;;9.97;54.99;99114.31;12776850;23;19913;-85
2022/03/27 04:40:51;;;;;;;;;;;;;;;9.88;54.64;99108.56;12775107;23;19931;-78
2022/03/27 04:46:13;;;;;;;;;;;;;;;9.86;54.55;99120.28;12775959;23;19980;-83
2022/03/27 04:51:34;;;;;;;;;;;;;;;9.82;55.23;99110.78;12796545;23;19904;-81
2022/03/27 04:56:55;;;;;;;;;;;;;;;9.75;54.90;99109.50;12774150;23;19912;-79
2022/03/27 05:02:28;;;;;;;;;;;;;;;9.76;55.24;99110.97;12778627;23;19921;-83
2022/03/27 05:07:50;;;;;;;;;;;;;;;9.87;55.09;99126.59;12818222;23;19921;-81
2022/03/27 05:13:14;;;;;;;;;;;;;;;10.11;54.61;99114.09;12797666;23;19920;-86
2022/03/27 05:18:37;;;;;;;;;;;;;;;10.39;54.58;99122.28;12798319;23;19905;-82
2022/03/27 05:24:01;;;;;;;;;;;;;;;10.68;54.51;99116.44;12777054;23;19920;-87
2022/03/27 05:29:26;;;;;;;;;;;;;;;11.10;53.89;99125.78;12778299;23;19920;-86
2022/03/27 05:34:48;;;;;;;;;;;;;;;11.45;53.35;99140.69;12776046;23;20269;-86
2022/03/27 05:40:12;;;;;;;;;;;;;;;11.92;52.70;99146.75;12757045;23;19911;-86
2022/03/27 05:45:35;;;;;;;;;;;;;;;12.42;51.77;99146.69;12756377;23;19904;-85
2022/03/27 05:50:56;;;;;;;;;;;;;;;12.68;51.41;99146.06;12797900;23;19920;-83
2022/03/27 06:02:19;;;;;;;;;;;;;;;15.82;47.24;99145.09;12742613;23;19951;-78
2022/03/27 06:07:46;;;;;;;;;;;;;;;16.52;46.86;99147.72;12793243;23;19924;-84
2022/03/27 06:13:08;;;;;;;;;;;;;;;17.65;47.60;99154.28;12755899;23;19979;-84
2022/03/27 06:18:28;;;;;;;;;;;;;;;20.45;43.39;99154.56;12759492;23;19927;-84
2022/03/27 06:23:49;;;;;;;;;;;;;;;26.05;31.91;99159.09;12779319;23;19921;-82
2022/03/27 06:29:10;;;;;;;;;;;;;;;30.57;28.86;99165.84;12758825;23;19924;-83
2022/03/27 06:34:31;;;;;;;;;;;;;;;33.44;23.09;99172.25;12778521;23;19920;-83
2022/03/27 06:39:52;;;;;;;;;;;;;;;35.20;19.00;99172.84;12779717;23;20002;-84
2022/03/27 06:45:13;;;;;;;;;;;;;;;37.65;18.05;99179.00;12778344;23;19920;-85
2022/03/27 06:50:34;;;;;;;;;;;;;;;39.26;14.29;99181.31;12779588;23;19927;-85
2022/03/27 06:55:55;;;;;;;;;;;;;;;39.35;11.65;99177.41;12758417;23;19921;-86
2022/03/27 07:06:58;;;;;;;;;;;;;;;42.22;10.45;99182.94;12781660;23;19920;-86
2022/03/27 07:12:18;;;;;;;;;;;;;;;42.85;8.36;99171.66;12778530;23;20220;-86
2022/03/27 07:17:46;;;;;;;;;;;;;;;43.53;8.40;99175.44;12758348;23;19920;-87
2022/03/27 07:23:09;;;;;;;;;;;;;;;43.51;7.11;99171.84;12758561;23;19982;-86
2022/03/27 07:28:31;;;;;;;;;;;;;;;44.36;7.16;99165.03;12798666;23;19927;-86
2022/03/27 07:33:55;;;;;;;;;;;;;;;44.24;6.18;99178.09;12760030;23;19924;-86
2022/03/27 07:39:16;;;;;;;;;;;;;;;45.62;5.94;99176.44;12762983;23;20231;-86
2022/03/27 07:44:37;;;;;;;;;;;;;;;46.01;5.76;99176.59;12761202;23;19920;-86
2022/03/27 07:49:57;;;;;;;;;;;;;;;46.50;5.08;99172.41;12741413;23;19995;-85
2022/03/27 07:55:20;;;;;;;;;;;;;;;46.63;5.28;99169.47;12782605;23;19920;-81
2022/03/27 08:00:47;;;;;;;;;;;;;;;47.02;5.29;99165.00;12803979;23;19920;-81
2022/03/27 08:06:09;;;;;;;;;;;;;;;46.76;5.20;99164.28;12764406;23;19920;-83
2022/03/27 08:11:29;;;;;;;;;;;;;;;48.19;4.71;99164.53;12781676;23;19927;-82
2022/03/27 08:16:54;;;;;;;;;;;;;;;48.35;4.41;99160.53;12742586;23;19920;-88
2022/03/27 08:22:16;;;;;;;;;;;;;;;48.47;4.00;99158.34;12761967;23;19920;-81
2022/03/27 08:27:37;;;;;;;;;;;;;;;50.06;3.55;99151.84;12761650;23;19944;-82
2022/03/27 08:32:58;;;;;;;;;;;;;;;51.41;3.02;99163.31;12760811;23;20242;-82
2022/03/27 08:38:18;;;;;;;;;;;;;;;51.93;2.67;99154.03;12740834;23;19928;-82
2022/03/27 08:43:44;;;;;;;;;;;;;;;50.53;3.28;99157.34;12761332;23;20004;-82
2022/03/27 08:49:08;;;;;;;;;;;;;;;51.31;3.22;99160.41;12781228;23;19920;-82
2022/03/27 08:54:34;;;;;;;;;;;;;;;51.59;2.59;99170.09;12760983;23;20283;-86
2022/03/27 08:59:57;;;;;;;;;;;;;;;51.28;2.86;99168.09;12740703;23;20297;-87
2022/03/27 09:05:22;;;;;;;;;;;;;;;51.46;2.97;99167.41;12802176;23;19921;-85
2022/03/27 09:10:43;;;;;;;;;;;;;;;50.97;2.48;99162.22;12802071;23;19974;-81
2022/03/27 09:16:05;;;;;;;;;;;;;;;49.76;3.01;99159.97;12760596;23;19920;-82
2022/03/27 09:21:29;;;;;;;;;;;;;;;51.76;2.12;99163.59;12781146;23;19968;-83
2022/03/27 09:32:57;;;;;;;;;;;;;;;51.21;2.40;99170.84;12774109;23;19920;-80
2022/03/27 09:38:21;;;;;;;;;;;;;;;51.48;2.64;99154.63;12758655;23;19940;-83
2022/03/27 09:44:03;;;;;;;;;;;;;;;51.72;2.34;99155.66;12798112;23;19920;-80
2022/03/27 09:49:30;;;;;;;;;;;;;;;50.05;2.40;99158.66;12779942;23;19920;-85
2022/03/27 09:55:05;;;;;;;;;;;;;;;49.83;2.75;99146.13;12780513;23;19927;-85
2022/03/27 10:00:36;;;;;;;;;;;;;;;50.65;2.29;99138.59;12821014;23;19924;-87
2022/03/27 10:05:57;;;;;;;;;;;;;;;51.39;2.35;99136.69;12759183;23;19928;-88
2022/03/27 10:11:21;;;;;;;;;;;;;;;52.30;1.92;99136.91;12758192;23;19999;-86
2022/03/27 10:16:46;;;;;;;;;;;;;;;52.21;1.51;99124.97;12778903;23;19924;-85
2022/03/27 10:22:10;;;;;;;;;;;;;;;51.49;1.57;99121.03;12759068;23;20350;-83
2022/03/27 10:27:34;;;;;;;;;;;;;;;51.07;1.86;99122.09;12798707;23;19924;-86
2022/03/27 10:32:56;;;;;;;;;;;;;;;49.90;2.62;99116.69;12778507;23;19920;-86
2022/03/27 10:38:37;;;;;;;;;;;;;;;50.91;1.95;99109.19;12778949;23;19921;-86
2022/03/27 10:44:01;;;;;;;;;;;;;;;50.91;1.71;99111.44;12757861;23;19920;-84
2022/03/27 10:49:25;;;;;;;;;;;;;;;51.58;1.67;99108.50;12757251;23;19999;-87
2022/03/27 10:55:13;;;;;;;;;;;;;;;50.73;2.28;99095.72;12758335;23;19947;-82
2022/03/27 11:00:39;;;;;;;;;;;;;;;50.33;1.95;99090.53;12780012;23;19920;-81
2022/03/27 11:06:00;;;;;;;;;;;;;;;43.29;4.71;99082.44;12757536;23;19920;-82
2022/03/27 11:11:48;;;;;;;;;;;;;;;37.30;6.98;99088.66;12737588;23;20152;-82
2022/03/27 11:17:09;;;;;;;;;;;;;;;33.72;9.60;99078.84;12800889;23;19927;-83
2022/03/27 11:22:43;;;;;;;;;;;;;;;32.60;10.37;99068.16;12777804;23;19975;-81
2022/03/27 11:28:11;;;;;;;;;;;;;;;31.50;10.83;99076.50;12798243;23;19928;-78
2022/03/27 11:33:32;;;;;;;;;;;;;;;30.58;12.56;99072.22;12757379;23;19924;-79
2022/03/27 11:39:01;;;;;;;;;;;;;;;28.93;13.84;99061.59;12778013;23;19927;-78
2022/03/27 11:50:07;;;;;;;;;;;;;;;28.46;14.79;99049.31;12761135;23;19920;-78
2022/03/27 11:55:32;;;;;;;;;;;;;;;28.13;14.83;99053.00;12757064;23;19927;-79
2022/03/27 12:00:53;;;;;;;;;;;;;;;27.21;15.48;99050.41;12777114;23;19924;-79
2022/03/27 12:06:14;;;;;;;;;;;;;;;26.96;15.86;99040.53;12758165;23;19920;-79
2022/03/27 12:11:34;;;;;;;;;;;;;;;25.61;17.46;99027.75;12778331;23;19920;-78
2022/03/27 12:16:55;;;;;;;;;;;;;;;24.92;17.96;99022.81;12757776;23;20350;-79
2022/03/27 12:22:16;;;;;;;;;;;;;;;24.88;18.11;99022.69;12779946;23;19943;-81
2022/03/27 12:33:27;;;;;;;;;;;;;;;24.76;18.09;99012.34;12764447;23;20243;-83
2022/03/27 12:38:48;;;;;;;;;;;;;;;25.06;17.86;99000.41;12782074;23;19920;-81
2022/03/27 12:44:08;;;;;;;;;;;;;;;24.44;18.94;99002.75;12801578;23;19970;-82
2022/03/27 12:49:29;;;;;;;;;;;;;;;23.35;19.76;98998.22;12780973;23;19920;-83
2022/03/27 12:54:55;;;;;;;;;;;;;;;23.45;19.81;98988.59;12800779;23;19943;-83
2022/03/27 13:00:16;;;;;;;;;;;;;;;23.26;19.86;98979.41;12780659;23;19920;-82
2022/03/27 13:05:36;;;;;;;;;;;;;;;23.50;19.93;98978.81;12760730;23;19921;-79
2022/03/27 13:10:58;;;;;;;;;;;;;;;23.38;19.97;98967.72;12802231;23;19998;-79
2022/03/27 13:16:25;;;;;;;;;;;;;;;23.37;19.99;98963.41;12801593;23;19927;-79
2022/03/27 13:21:46;;;;;;;;;;;;;;;22.91;20.75;98954.59;12759963;23;19974;-79
2022/03/27 13:27:08;;;;;;;;;;;;;;;23.24;20.63;98950.09;12801112;23;19927;-79
2022/03/27 13:32:29;;;;;;;;;;;;;;;23.37;20.12;98944.19;12780799;23;19920;-78
2022/03/27 13:37:51;;;;;;;;;;;;;;;23.86;19.37;98936.63;12780906;23;20350;-79
2022/03/27 13:43:11;;;;;;;;;;;;;;;24.05;18.26;98932.28;12800444;23;19921;-76
2022/03/27 13:48:33;;;;;;;;;;;;;;;23.99;18.04;98924.22;12779256;23;19924;-75
2022/03/27 13:53:53;;;;;;;;;;;;;;;24.01;17.92;98924.28;12780518;23;19920;-76
2022/03/27 13:59:15;;;;;;;;;;;;;;;23.88;17.88;98922.44;12780384;23;19927;-76
2022/03/27 14:04:35;;;;;;;;;;;;;;;23.58;17.96;98914.28;12764056;23;19927;-76
2022/03/27 14:09:56;;;;;;;;;;;;;;;23.10;18.27;98908.31;12778915;23;20039;-75
2022/03/27 14:15:17;;;;;;;;;;;;;;;22.53;18.47;98905.44;12779845;23;19920;-85
2022/03/27 14:20:39;;;;;;;;;;;;;;;22.40;19.01;98894.97;12779319;23;19920;-81
2022/03/27 14:26:04;;;;;;;;;;;;;;;22.69;18.47;98899.63;12822623;23;20051;-84
2022/03/27 14:31:25;;;;;;;;;;;;;;;22.47;18.50;98899.50;12779044;23;19951;-82
2022/03/27 14:36:47;;;;;;;;;;;;;;;22.53;18.33;98900.47;12779226;23;19967;-83
2022/03/27 14:42:08;;;;;;;;;;;;;;;22.23;18.37;98897.16;12779419;23;20320;-79
2022/03/27 14:47:35;;;;;;;;;;;;;;;22.24;18.57;98892.94;12780405;23;19920;-78
2022/03/27 14:52:57;;;;;;;;;;;;;;;22.26;18.52;98883.75;12759051;23;19920;-78
2022/03/27 14:58:18;;;;;;;;;;;;;;;21.91;18.68;98890.16;12799233;23;19927;-76
2022/03/27 15:03:39;;;;;;;;;;;;;;;21.79;18.93;98869.75;12788702;23;19926;-75
2022/03/27 15:09:00;;;;;;;;;;;;;;;21.74;19.31;98871.69;12799845;23;20281;-76
2022/03/27 15:14:21;;;;;;;;;;;;;;;21.38;19.80;98859.53;12821658;23;20240;-81
2022/03/27 15:19:42;;;;;;;;;;;;;;;21.45;20.00;98858.41;12778310;23;19921;-81
2022/03/27 15:25:06;;;;;;;;;;;;;;;21.41;19.72;98852.56;12779022;23;19920;-82
2022/03/27 15:30:26;;;;;;;;;;;;;;;21.21;19.80;98848.81;12778360;23;19987;-82
2022/03/27 15:35:47;;;;;;;;;;;;;;;20.82;20.67;98847.13;12799562;23;20003;-75
2022/03/27 15:41:08;;;;;;;;;;;;;;;20.64;21.25;98844.19;12799410;23;19976;-75
2022/03/27 15:46:28;;;;;;;;;;;;;;;20.63;20.83;98837.06;12799504;23;19957;-79
2022/03/27 15:51:49;;;;;;;;;;;;;;;20.52;20.73;98833.03;12757318;23;19921;-76
2022/03/27 15:57:11;;;;;;;;;;;;;;;20.40;20.94;98826.06;12780613;23;19920;-79
2022/03/27 16:02:31;;;;;;;;;;;;;;;20.16;21.11;98831.31;12775674;23;19920;-75
2022/03/27 16:07:53;;;;;;;;;;;;;;;19.92;21.59;98837.31;12802602;23;20182;-81
2022/03/27 16:13:14;;;;;;;;;;;;;;;19.77;21.91;98843.63;12782655;23;19920;-79
2022/03/27 16:18:38;;;;;;;;;;;;;;;19.58;22.31;98842.00;12781993;23;19978;-82
2022/03/27 16:23:58;;;;;;;;;;;;;;;19.39;22.41;98831.13;12782069;23;19920;-82
2022/03/27 16:29:19;;;;;;;;;;;;;;;19.01;23.45;98827.81;12781322;23;19971;-85
2022/03/27 16:34:40;;;;;;;;;;;;;;;18.91;23.01;98824.44;12740887;23;19920;-84
2022/03/27 16:40:01;;;;;;;;;;;;;;;18.94;23.06;98826.03;12802917;23;19928;-87
2022/03/27 16:45:21;;;;;;;;;;;;;;;18.85;23.72;98826.97;12781656;23;19920;-86
2022/03/27 16:50:42;;;;;;;;;;;;;;;18.70;23.58;98825.47;12781937;23;19974;-87
2022/03/27 16:56:03;;;;;;;;;;;;;;;18.51;23.96;98820.91;12780609;23;19920;-87
2022/03/27 17:01:23;;;;;;;;;;;;;;;18.31;23.94;98825.50;12759542;23;20228;-81
2022/03/27 17:06:44;;;;;;;;;;;;;;;18.07;24.36;98824.91;12763050;23;19920;-85
2022/03/27 17:12:05;;;;;;;;;;;;;;;17.86;24.54;98814.56;12760711;23;20327;-82
2022/03/27 17:17:26;;;;;;;;;;;;;;;17.72;24.74;98811.66;12780894;23;19920;-82
2022/03/27 17:22:46;;;;;;;;;;;;;;;17.58;24.80;98815.78;12801858;23;19920;-81
2022/03/27 17:28:07;;;;;;;;;;;;;;;17.46;25.14;98816.53;12800997;23;19975;-88
2022/03/27 17:33:28;;;;;;;;;;;;;;;17.33;25.76;98819.25;12780832;23;19967;-86
2022/03/27 17:38:49;;;;;;;;;;;;;;;17.24;25.85;98820.88;12802799;23;19920;-85
2022/03/27 17:44:09;;;;;;;;;;;;;;;17.14;25.92;98829.47;12801381;23;19920;-85
2022/03/27 17:49:30;;;;;;;;;;;;;;;17.02;26.14;98828.78;12780419;23;20353;-84
2022/03/27 17:54:51;;;;;;;;;;;;;;;16.90;26.31;98830.13;12779707;23;19920;-84
2022/03/27 18:00:12;;;;;;;;;;;;;;;16.78;26.34;98830.84;12780541;23;19920;-83
2022/03/27 18:05:36;;;;;;;;;;;;;;;16.72;26.04;98822.03;12761566;23;20407;-84
2022/03/27 18:10:56;;;;;;;;;;;;;;;16.58;26.57;98835.97;12759993;23;19920;-81
2022/03/27 18:16:17;;;;;;;;;;;;;;;16.42;26.85;98839.88;12759271;23;19928;-78
2022/03/27 18:21:37;;;;;;;;;;;;;;;16.28;27.58;98842.53;12823019;23;19920;-77
2022/03/27 18:26:58;;;;;;;;;;;;;;;16.13;27.82;98855.00;12800585;23;20342;-80
2022/03/27 18:32:19;;;;;;;;;;;;;;;15.97;28.00;98853.97;12779011;23;20324;-81
2022/03/27 18:37:40;;;;;;;;;;;;;;;15.77;28.59;98856.22;12799880;23;19920;-80
2022/03/27 18:43:01;;;;;;;;;;;;;;;15.62;28.98;98865.06;12801010;23;19927;-78
2022/03/27 18:48:22;;;;;;;;;;;;;;;15.49;29.16;98869.16;12800680;23;19920;-79
2022/03/27 18:53:57;;;;;;;;;;;;;;;15.42;29.23;98865.19;12764354;23;20394;-81
2022/03/27 18:59:17;;;;;;;;;;;;;;;15.39;29.35;98866.41;12799646;23;19970;-80
2022/03/27 19:04:38;;;;;;;;;;;;;;;15.30;29.49;98864.38;12764407;23;19920;-79
2022/03/27 19:09:58;;;;;;;;;;;;;;;15.22;29.49;98863.84;12780033;23;19920;-78
2022/03/27 19:15:19;;;;;;;;;;;;;;;15.10;30.09;98865.84;12804557;23;19920;-77
2022/03/27 19:20:40;;;;;;;;;;;;;;;15.01;30.09;98867.38;12759878;23;20328;-77
2022/03/27 19:26:01;;;;;;;;;;;;;;;14.97;30.12;98877.59;12788143;23;20236;-77
2022/03/27 19:31:28;;;;;;;;;;;;;;;14.88;30.19;98873.50;12653130;23;19921;-78
2022/03/27 19:36:49;;;;;;;;;;;;;;;14.80;30.44;98882.09;12643524;23;19921;-77
2022/03/27 19:42:09;;;;;;;;;;;;;;;14.75;30.20;98871.91;12682467;23;20246;-77
2022/03/27 19:47:30;;;;;;;;;;;;;;;14.72;30.92;98863.94;12684047;23;19936;-79
2022/03/27 19:52:50;;;;;;;;;;;;;;;14.60;31.07;98861.78;12671321;23;19922;-79
2022/03/27 19:58:11;;;;;;;;;;;;;;;14.51;31.61;98870.97;12675396;23;19905;-79
2022/03/27 20:03:32;;;;;;;;;;;;;;;14.47;31.81;98862.25;12726158;23;19964;-80
2022/03/27 20:08:53;;;;;;;;;;;;;;;14.44;31.99;98877.47;12667555;23;19921;-77
2022/03/27 20:14:15;;;;;;;;;;;;;;;14.33;32.03;98861.97;12662569;23;19921;-77
2022/03/27 20:19:35;;;;;;;;;;;;;;;14.32;32.04;98862.56;12658937;23;19921;-80
2022/03/27 20:24:56;;;;;;;;;;;;;;;14.24;32.31;98853.56;12722051;23;19948;-80
2022/03/27 20:30:21;;;;;;;;;;;;;;;14.11;32.14;98854.78;12701252;23;19921;-80
2022/03/27 20:35:43;;;;;;;;;;;;;;;13.98;32.79;98853.16;12676998;23;19991;-80
2022/03/27 20:41:06;;;;;;;;;;;;;;;13.83;33.29;98850.66;12672902;23;19921;-80
2022/03/27 20:46:27;;;;;;;;;;;;;;;13.77;33.37;98855.84;12692064;23;19925;-80
2022/03/27 20:51:50;;;;;;;;;;;;;;;13.78;33.46;98848.16;12694827;23;19936;-80
2022/03/27 20:57:10;;;;;;;;;;;;;;;13.71;33.62;98839.31;12675799;23;19952;-79
2022/03/27 21:02:31;;;;;;;;;;;;;;;13.66;33.49;98839.59;12672551;23;20332;-80
2022/03/27 21:07:52;;;;;;;;;;;;;;;13.57;33.77;98829.84;12635158;23;20252;-80
2022/03/27 21:13:12;;;;;;;;;;;;;;;13.55;34.03;98826.91;12676382;23;19928;-80
2022/03/27 21:18:33;;;;;;;;;;;;;;;13.57;33.74;98834.72;12655810;23;19921;-80
2022/03/27 21:23:54;;;;;;;;;;;;;;;13.51;34.05;98834.25;12675566;23;19948;-80
2022/03/27 21:29:15;;;;;;;;;;;;;;;13.31;34.34;98842.66;12663761;23;19921;-80
2022/03/27 21:34:36;;;;;;;;;;;;;;;13.17;34.64;98839.53;12695092;23;19921;-80
2022/03/27 21:39:58;;;;;;;;;;;;;;;13.11;34.75;98844.66;12714362;23;19928;-80
2022/03/27 21:45:19;;;;;;;;;;;;;;;13.00;35.11;98838.88;12675742;23;19921;-80
2022/03/27 21:50:43;;;;;;;;;;;;;;;12.77;35.18;98850.47;12676044;23;19921;-80
2022/03/27 21:56:03;;;;;;;;;;;;;;;12.66;35.66;98851.03;12696519;23;19925;-81
2022/03/27 22:01:24;;;;;;;;;;;;;;;12.57;35.72;98849.66;12673104;23;19921;-80
2022/03/27 22:06:45;;;;;;;;;;;;;;;12.53;35.73;98847.28;12714459;23;19928;-80
2022/03/27 22:12:06;;;;;;;;;;;;;;;12.47;35.82;98851.69;12692157;23;19921;-80
2022/03/27 22:17:26;;;;;;;;;;;;;;;12.29;36.05;98842.59;12669567;23;19948;-80
2022/03/27 22:22:47;;;;;;;;;;;;;;;12.22;36.42;98840.63;12690797;23;19976;-80
2022/03/27 22:28:08;;;;;;;;;;;;;;;12.03;36.56;98827.28;12705185;23;19924;-80
2022/03/27 22:33:29;;;;;;;;;;;;;;;11.98;37.05;98836.69;12668764;23;19931;-80
2022/03/27 22:38:50;;;;;;;;;;;;;;;11.99;36.86;98829.75;12647883;23;19921;-80
2022/03/27 22:44:11;;;;;;;;;;;;;;;12.02;36.93;98820.19;12711206;23;19928;-80
2022/03/27 22:49:32;;;;;;;;;;;;;;;11.95;37.15;98824.56;12689021;23;19921;-80
2022/03/27 22:54:54;;;;;;;;;;;;;;;11.90;37.35;98824.84;12688403;23;19921;-80
2022/03/27 23:00:17;;;;;;;;;;;;;;;11.82;37.12;98808.13;12689650;23;19921;-80
2022/03/27 23:05:38;;;;;;;;;;;;;;;11.85;37.36;98811.84;12692516;23;20382;-80
2022/03/27 23:10:58;;;;;;;;;;;;;;;11.87;37.51;98814.78;12668507;23;19926;-80
2022/03/27 23:16:20;;;;;;;;;;;;;;;11.86;37.26;98807.72;12666865;23;19921;-80
2022/03/27 23:21:41;;;;;;;;;;;;;;;11.74;37.38;98808.19;12686128;23;20289;-80
2022/03/27 23:27:02;;;;;;;;;;;;;;;11.72;37.41;98804.50;12664205;23;19928;-80
2022/03/27 23:32:22;;;;;;;;;;;;;;;11.67;37.79;98803.44;12645368;23;19921;-80
2022/03/27 23:37:43;;;;;;;;;;;;;;;11.59;37.98;98800.00;12663805;23;20014;-80
2022/03/27 23:43:04;;;;;;;;;;;;;;;11.48;38.50;98800.50;12684284;23;19987;-80
2022/03/27 23:48:24;;;;;;;;;;;;;;;11.41;38.17;98788.09;12663423;23;19945;-80
2022/03/27 23:53:45;;;;;;;;;;;;;;;11.38;38.13;98782.91;12664647;23;19952;-80
2022/03/27 23:59:06;;;;;;;;;;;;;;;11.40;38.73;98780.28;12664221;23;20320;-80
